sensor_id;sensor_type;location;lat;lon;timestamp;temperature;humidity
59075;DHT22;44860;53.020;6.738;2022-10-10T00:00:42;8.00;99.90
59075;DHT22;44860;53.020;6.738;2022-10-10T00:03:09;8.00;99.90
59075;DHT22;44860;53.020;6.738;2022-10-10T00:05:36;8.00;99.90
59075;DHT22;44860;53.020;6.738;2022-10-10T00:08:01;7.90;99.90
59075;DHT22;44860;53.020;6.738;2022-10-10T00:10:27;7.90;99.90
59075;DHT22;44860;53.020;6.738;2022-10-10T00:12:53;7.90;99.90
59075;DHT22;44860;53.020;6.738;2022-10-10T00:15:18;7.90;99.90
59075;DHT22;44860;53.020;6.738;2022-10-10T00:17:44;7.90;99.90
59075;DHT22;44860;53.020;6.738;2022-10-10T00:20:12;7.90;99.90
59075;DHT22;44860;53.020;6.738;2022-10-10T00:22:38;7.80;99.90
59075;DHT22;44860;53.020;6.738;2022-10-10T00:25:06;7.90;99.90
59075;DHT22;44860;53.020;6.738;2022-10-10T00:27:32;7.90;99.90
59075;DHT22;44860;53.020;6.738;2022-10-10T00:29:57;7.90;99.90
59075;DHT22;44860;53.020;6.738;2022-10-10T00:32:23;7.80;99.90
59075;DHT22;44860;53.020;6.738;2022-10-10T00:34:49;7.80;99.90
59075;DHT22;44860;53.020;6.738;2022-10-10T00:37:14;7.80;99.90
59075;DHT22;44860;53.020;6.738;2022-10-10T00:39:40;7.80;99.90
59075;DHT22;44860;53.020;6.738;2022-10-10T00:42:06;7.80;99.90
59075;DHT22;44860;53.020;6.738;2022-10-10T00:44:35;7.80;99.90
59075;DHT22;44860;53.020;6.738;2022-10-10T00:47:01;7.70;99.90
59075;DHT22;44860;53.020;6.738;2022-10-10T00:49:28;7.70;99.90
59075;DHT22;44860;53.020;6.738;2022-10-10T00:51:56;7.60;99.90
59075;DHT22;44860;53.020;6.738;2022-10-10T00:54:24;7.60;99.90
59075;DHT22;44860;53.020;6.738;2022-10-10T00:56:56;7.50;99.90
59075;DHT22;44860;53.020;6.738;2022-10-10T00:59:23;7.50;99.90
59075;DHT22;44860;53.020;6.738;2022-10-10T01:01:50;7.40;99.90
59075;DHT22;44860;53.020;6.738;2022-10-10T01:04:35;7.40;99.90
59075;DHT22;44860;53.020;6.738;2022-10-10T01:07:05;7.40;99.90
59075;DHT22;44860;53.020;6.738;2022-10-10T01:09:32;7.30;99.90
59075;DHT22;44860;53.020;6.738;2022-10-10T01:15:09;7.20;99.90
59075;DHT22;44860;53.020;6.738;2022-10-10T01:23:33;7.20;99.90
59075;DHT22;44860;53.020;6.738;2022-10-10T01:29:00;7.20;99.90
59075;DHT22;44860;53.020;6.738;2022-10-10T01:31:27;7.20;99.90
59075;DHT22;44860;53.020;6.738;2022-10-10T01:39:46;7.20;99.90
59075;DHT22;44860;53.020;6.738;2022-10-10T01:42:19;7.20;99.90
59075;DHT22;44860;53.020;6.738;2022-10-10T01:44:47;7.30;99.90
59075;DHT22;44860;53.020;6.738;2022-10-10T01:47:13;7.30;99.90
59075;DHT22;44860;53.020;6.738;2022-10-10T01:49:41;7.30;99.90
59075;DHT22;44860;53.020;6.738;2022-10-10T01:52:28;7.20;99.90
59075;DHT22;44860;53.020;6.738;2022-10-10T02:00:24;7.20;99.90
59075;DHT22;44860;53.020;6.738;2022-10-10T02:05:46;7.20;99.90
59075;DHT22;44860;53.020;6.738;2022-10-10T02:10:58;7.20;99.90
59075;DHT22;44860;53.020;6.738;2022-10-10T02:13:33;7.20;99.90
59075;DHT22;44860;53.020;6.738;2022-10-10T02:16:02;7.20;99.90
59075;DHT22;44860;53.020;6.738;2022-10-10T02:18:31;7.20;99.90
59075;DHT22;44860;53.020;6.738;2022-10-10T02:20:58;7.30;99.90
59075;DHT22;44860;53.020;6.738;2022-10-10T02:23:26;7.30;99.90
59075;DHT22;44860;53.020;6.738;2022-10-10T02:25:54;7.30;99.90
59075;DHT22;44860;53.020;6.738;2022-10-10T02:28:39;7.30;99.90
59075;DHT22;44860;53.020;6.738;2022-10-10T02:31:09;7.30;99.90
59075;DHT22;44860;53.020;6.738;2022-10-10T02:33:58;7.30;99.90
59075;DHT22;44860;53.020;6.738;2022-10-10T02:36:27;7.40;99.90
59075;DHT22;44860;53.020;6.738;2022-10-10T02:38:55;7.40;99.90
59075;DHT22;44860;53.020;6.738;2022-10-10T02:41:21;7.50;99.90
59075;DHT22;44860;53.020;6.738;2022-10-10T02:43:48;7.50;99.90
59075;DHT22;44860;53.020;6.738;2022-10-10T02:46:15;7.50;99.90
59075;DHT22;44860;53.020;6.738;2022-10-10T02:48:41;7.50;99.90
59075;DHT22;44860;53.020;6.738;2022-10-10T02:51:08;7.50;99.90
59075;DHT22;44860;53.020;6.738;2022-10-10T02:53:35;7.60;99.90
59075;DHT22;44860;53.020;6.738;2022-10-10T02:56:02;7.60;99.90
59075;DHT22;44860;53.020;6.738;2022-10-10T02:58:27;7.60;99.90
59075;DHT22;44860;53.020;6.738;2022-10-10T03:00:53;7.60;99.90
59075;DHT22;44860;53.020;6.738;2022-10-10T03:03:19;7.70;99.90
59075;DHT22;44860;53.020;6.738;2022-10-10T03:05:45;7.70;99.90
59075;DHT22;44860;53.020;6.738;2022-10-10T03:08:10;7.70;99.90
59075;DHT22;44860;53.020;6.738;2022-10-10T03:10:36;7.70;99.90
59075;DHT22;44860;53.020;6.738;2022-10-10T03:13:02;7.70;99.90
59075;DHT22;44860;53.020;6.738;2022-10-10T03:15:27;7.70;99.90
59075;DHT22;44860;53.020;6.738;2022-10-10T03:17:53;7.70;99.90
59075;DHT22;44860;53.020;6.738;2022-10-10T03:20:19;7.70;99.90
59075;DHT22;44860;53.020;6.738;2022-10-10T03:22:44;7.80;99.90
59075;DHT22;44860;53.020;6.738;2022-10-10T03:25:10;7.80;99.90
59075;DHT22;44860;53.020;6.738;2022-10-10T03:27:35;7.70;99.90
59075;DHT22;44860;53.020;6.738;2022-10-10T03:30:02;7.80;99.90
59075;DHT22;44860;53.020;6.738;2022-10-10T03:32:28;7.80;99.90
59075;DHT22;44860;53.020;6.738;2022-10-10T03:34:53;7.70;99.90
59075;DHT22;44860;53.020;6.738;2022-10-10T03:37:19;7.80;99.90
59075;DHT22;44860;53.020;6.738;2022-10-10T03:39:45;7.80;99.90
59075;DHT22;44860;53.020;6.738;2022-10-10T03:42:10;7.80;99.90
59075;DHT22;44860;53.020;6.738;2022-10-10T03:44:36;7.80;99.90
59075;DHT22;44860;53.020;6.738;2022-10-10T03:47:02;7.80;99.90
59075;DHT22;44860;53.020;6.738;2022-10-10T03:49:28;7.80;99.90
59075;DHT22;44860;53.020;6.738;2022-10-10T03:51:53;7.80;99.90
59075;DHT22;44860;53.020;6.738;2022-10-10T03:54:19;7.80;99.90
59075;DHT22;44860;53.020;6.738;2022-10-10T03:56:45;7.80;99.90
59075;DHT22;44860;53.020;6.738;2022-10-10T03:59:10;7.80;99.90
59075;DHT22;44860;53.020;6.738;2022-10-10T04:01:36;7.80;99.90
59075;DHT22;44860;53.020;6.738;2022-10-10T04:04:02;7.80;99.90
59075;DHT22;44860;53.020;6.738;2022-10-10T04:06:29;7.80;99.90
59075;DHT22;44860;53.020;6.738;2022-10-10T04:08:55;7.70;99.90
59075;DHT22;44860;53.020;6.738;2022-10-10T04:11:20;7.70;99.90
59075;DHT22;44860;53.020;6.738;2022-10-10T04:13:46;7.70;99.90
59075;DHT22;44860;53.020;6.738;2022-10-10T04:16:12;7.70;99.90
59075;DHT22;44860;53.020;6.738;2022-10-10T04:18:37;7.70;99.90
59075;DHT22;44860;53.020;6.738;2022-10-10T04:21:04;7.70;99.90
59075;DHT22;44860;53.020;6.738;2022-10-10T04:23:30;7.70;99.90
59075;DHT22;44860;53.020;6.738;2022-10-10T04:25:56;7.70;99.90
59075;DHT22;44860;53.020;6.738;2022-10-10T04:28:21;7.70;99.90
59075;DHT22;44860;53.020;6.738;2022-10-10T04:30:47;7.70;99.90
59075;DHT22;44860;53.020;6.738;2022-10-10T04:33:13;7.70;99.90
59075;DHT22;44860;53.020;6.738;2022-10-10T04:35:39;7.70;99.90
59075;DHT22;44860;53.020;6.738;2022-10-10T04:38:05;7.70;99.90
59075;DHT22;44860;53.020;6.738;2022-10-10T04:40:31;7.70;99.90
59075;DHT22;44860;53.020;6.738;2022-10-10T04:42:57;7.70;99.90
59075;DHT22;44860;53.020;6.738;2022-10-10T04:45:23;7.70;99.90
59075;DHT22;44860;53.020;6.738;2022-10-10T04:47:53;7.70;99.90
59075;DHT22;44860;53.020;6.738;2022-10-10T04:50:19;7.70;99.90
59075;DHT22;44860;53.020;6.738;2022-10-10T04:52:45;7.70;99.90
59075;DHT22;44860;53.020;6.738;2022-10-10T04:55:10;7.70;99.90
59075;DHT22;44860;53.020;6.738;2022-10-10T04:57:36;7.70;99.90
59075;DHT22;44860;53.020;6.738;2022-10-10T05:00:03;7.60;99.90
59075;DHT22;44860;53.020;6.738;2022-10-10T05:02:29;7.60;99.90
59075;DHT22;44860;53.020;6.738;2022-10-10T05:04:55;7.70;99.90
59075;DHT22;44860;53.020;6.738;2022-10-10T05:07:20;7.60;99.90
59075;DHT22;44860;53.020;6.738;2022-10-10T05:09:46;7.60;99.90
59075;DHT22;44860;53.020;6.738;2022-10-10T05:12:11;7.60;99.90
59075;DHT22;44860;53.020;6.738;2022-10-10T05:14:37;7.60;99.90
59075;DHT22;44860;53.020;6.738;2022-10-10T05:17:03;7.60;99.90
59075;DHT22;44860;53.020;6.738;2022-10-10T05:19:28;7.60;99.90
59075;DHT22;44860;53.020;6.738;2022-10-10T05:21:54;7.60;99.90
59075;DHT22;44860;53.020;6.738;2022-10-10T05:24:19;7.60;99.90
59075;DHT22;44860;53.020;6.738;2022-10-10T05:26:45;7.60;99.90
59075;DHT22;44860;53.020;6.738;2022-10-10T05:29:11;7.60;99.90
59075;DHT22;44860;53.020;6.738;2022-10-10T05:31:36;7.60;99.90
59075;DHT22;44860;53.020;6.738;2022-10-10T05:34:02;7.60;99.90
59075;DHT22;44860;53.020;6.738;2022-10-10T05:36:27;7.60;99.90
59075;DHT22;44860;53.020;6.738;2022-10-10T05:38:53;7.60;99.90
59075;DHT22;44860;53.020;6.738;2022-10-10T05:41:19;7.60;99.90
59075;DHT22;44860;53.020;6.738;2022-10-10T05:43:44;7.60;99.90
59075;DHT22;44860;53.020;6.738;2022-10-10T05:46:10;7.60;99.90
59075;DHT22;44860;53.020;6.738;2022-10-10T05:48:36;7.60;99.90
59075;DHT22;44860;53.020;6.738;2022-10-10T05:51:01;7.60;99.90
59075;DHT22;44860;53.020;6.738;2022-10-10T05:53:28;7.60;99.90
59075;DHT22;44860;53.020;6.738;2022-10-10T05:55:55;7.60;99.90
59075;DHT22;44860;53.020;6.738;2022-10-10T05:58:21;7.60;99.90
59075;DHT22;44860;53.020;6.738;2022-10-10T06:00:47;7.60;99.90
59075;DHT22;44860;53.020;6.738;2022-10-10T06:03:13;7.70;99.90
59075;DHT22;44860;53.020;6.738;2022-10-10T06:05:45;7.70;99.90
59075;DHT22;44860;53.020;6.738;2022-10-10T06:08:13;7.70;99.90
59075;DHT22;44860;53.020;6.738;2022-10-10T06:10:41;7.70;99.90
59075;DHT22;44860;53.020;6.738;2022-10-10T06:13:07;7.70;99.90
59075;DHT22;44860;53.020;6.738;2022-10-10T06:15:33;7.70;99.90
59075;DHT22;44860;53.020;6.738;2022-10-10T06:17:59;7.70;99.90
59075;DHT22;44860;53.020;6.738;2022-10-10T06:20:25;7.70;99.90
59075;DHT22;44860;53.020;6.738;2022-10-10T06:22:51;7.80;99.90
59075;DHT22;44860;53.020;6.738;2022-10-10T06:25:16;7.80;99.90
59075;DHT22;44860;53.020;6.738;2022-10-10T06:27:42;7.80;99.90
59075;DHT22;44860;53.020;6.738;2022-10-10T06:30:08;7.80;99.90
59075;DHT22;44860;53.020;6.738;2022-10-10T06:32:34;7.80;99.90
59075;DHT22;44860;53.020;6.738;2022-10-10T06:35:00;7.80;99.90
59075;DHT22;44860;53.020;6.738;2022-10-10T06:37:26;7.80;99.90
59075;DHT22;44860;53.020;6.738;2022-10-10T06:39:52;7.90;99.90
59075;DHT22;44860;53.020;6.738;2022-10-10T06:42:17;7.90;99.90
59075;DHT22;44860;53.020;6.738;2022-10-10T06:44:43;7.90;99.90
59075;DHT22;44860;53.020;6.738;2022-10-10T06:47:09;8.00;99.90
59075;DHT22;44860;53.020;6.738;2022-10-10T06:49:37;8.00;99.90
59075;DHT22;44860;53.020;6.738;2022-10-10T06:52:02;8.00;99.90
59075;DHT22;44860;53.020;6.738;2022-10-10T06:54:28;8.10;99.90
59075;DHT22;44860;53.020;6.738;2022-10-10T06:56:54;8.10;99.90
59075;DHT22;44860;53.020;6.738;2022-10-10T06:59:19;8.20;99.90
59075;DHT22;44860;53.020;6.738;2022-10-10T07:01:45;8.20;99.90
59075;DHT22;44860;53.020;6.738;2022-10-10T07:04:11;8.30;99.90
59075;DHT22;44860;53.020;6.738;2022-10-10T07:06:37;8.30;99.90
59075;DHT22;44860;53.020;6.738;2022-10-10T07:09:03;8.40;99.90
59075;DHT22;44860;53.020;6.738;2022-10-10T07:11:29;8.50;99.90
59075;DHT22;44860;53.020;6.738;2022-10-10T07:13:54;8.60;99.90
59075;DHT22;44860;53.020;6.738;2022-10-10T07:16:20;8.60;99.90
59075;DHT22;44860;53.020;6.738;2022-10-10T07:18:46;8.70;99.90
59075;DHT22;44860;53.020;6.738;2022-10-10T07:21:11;8.70;99.90
59075;DHT22;44860;53.020;6.738;2022-10-10T07:23:37;8.80;99.90
59075;DHT22;44860;53.020;6.738;2022-10-10T07:26:07;8.90;99.90
59075;DHT22;44860;53.020;6.738;2022-10-10T07:28:33;9.00;99.90
59075;DHT22;44860;53.020;6.738;2022-10-10T07:31:04;9.00;99.90
59075;DHT22;44860;53.020;6.738;2022-10-10T07:33:38;9.00;99.90
59075;DHT22;44860;53.020;6.738;2022-10-10T07:36:04;9.10;99.90
59075;DHT22;44860;53.020;6.738;2022-10-10T07:38:30;9.10;99.90
59075;DHT22;44860;53.020;6.738;2022-10-10T07:40:55;9.10;99.90
59075;DHT22;44860;53.020;6.738;2022-10-10T07:43:21;9.20;99.90
59075;DHT22;44860;53.020;6.738;2022-10-10T07:45:47;9.30;99.90
59075;DHT22;44860;53.020;6.738;2022-10-10T07:48:12;9.30;99.90
59075;DHT22;44860;53.020;6.738;2022-10-10T07:50:42;9.40;99.90
59075;DHT22;44860;53.020;6.738;2022-10-10T07:53:09;9.50;99.90
59075;DHT22;44860;53.020;6.738;2022-10-10T07:55:42;9.50;99.90
59075;DHT22;44860;53.020;6.738;2022-10-10T07:58:10;9.60;99.90
59075;DHT22;44860;53.020;6.738;2022-10-10T08:00:36;9.60;99.90
59075;DHT22;44860;53.020;6.738;2022-10-10T08:03:05;9.60;99.90
59075;DHT22;44860;53.020;6.738;2022-10-10T08:05:31;9.70;99.90
59075;DHT22;44860;53.020;6.738;2022-10-10T08:07:57;9.70;99.90
59075;DHT22;44860;53.020;6.738;2022-10-10T08:10:22;9.70;99.90
59075;DHT22;44860;53.020;6.738;2022-10-10T08:12:48;9.80;99.90
59075;DHT22;44860;53.020;6.738;2022-10-10T08:15:14;9.80;99.90
59075;DHT22;44860;53.020;6.738;2022-10-10T08:17:40;9.90;99.90
59075;DHT22;44860;53.020;6.738;2022-10-10T08:20:06;10.00;99.90
59075;DHT22;44860;53.020;6.738;2022-10-10T08:22:31;10.00;99.90
59075;DHT22;44860;53.020;6.738;2022-10-10T08:24:57;10.10;99.90
59075;DHT22;44860;53.020;6.738;2022-10-10T08:27:23;10.10;99.90
59075;DHT22;44860;53.020;6.738;2022-10-10T08:29:48;10.20;99.90
59075;DHT22;44860;53.020;6.738;2022-10-10T08:32:14;10.20;99.90
59075;DHT22;44860;53.020;6.738;2022-10-10T08:34:40;10.20;99.90
59075;DHT22;44860;53.020;6.738;2022-10-10T08:37:05;10.30;99.90
59075;DHT22;44860;53.020;6.738;2022-10-10T08:39:31;10.30;99.90
59075;DHT22;44860;53.020;6.738;2022-10-10T08:41:59;10.30;99.90
59075;DHT22;44860;53.020;6.738;2022-10-10T08:44:45;10.30;99.90
59075;DHT22;44860;53.020;6.738;2022-10-10T08:47:20;10.40;99.90
59075;DHT22;44860;53.020;6.738;2022-10-10T08:49:53;10.50;99.90
59075;DHT22;44860;53.020;6.738;2022-10-10T08:52:35;10.50;99.90
59075;DHT22;44860;53.020;6.738;2022-10-10T08:55:06;10.70;99.90
59075;DHT22;44860;53.020;6.738;2022-10-10T09:00:07;10.80;99.90
59075;DHT22;44860;53.020;6.738;2022-10-10T09:02:48;10.90;99.90
59075;DHT22;44860;53.020;6.738;2022-10-10T09:05:19;11.00;99.90
59075;DHT22;44860;53.020;6.738;2022-10-10T09:13:04;11.30;99.90
59075;DHT22;44860;53.020;6.738;2022-10-10T09:15:39;11.40;99.90
59075;DHT22;44860;53.020;6.738;2022-10-10T09:21:01;11.60;99.90
59075;DHT22;44860;53.020;6.738;2022-10-10T09:26:13;11.70;99.90
59075;DHT22;44860;53.020;6.738;2022-10-10T09:28:55;11.80;99.90
59075;DHT22;44860;53.020;6.738;2022-10-10T09:31:32;11.80;99.90
59075;DHT22;44860;53.020;6.738;2022-10-10T09:34:08;11.90;99.90
59075;DHT22;44860;53.020;6.738;2022-10-10T09:36:36;12.00;99.90
59075;DHT22;44860;53.020;6.738;2022-10-10T09:44:21;12.20;99.90
59075;DHT22;44860;53.020;6.738;2022-10-10T09:46:47;12.40;99.90
59075;DHT22;44860;53.020;6.738;2022-10-10T09:49:17;12.50;99.90
59075;DHT22;44860;53.020;6.738;2022-10-10T09:51:44;12.50;99.90
59075;DHT22;44860;53.020;6.738;2022-10-10T09:54:11;12.60;99.90
59075;DHT22;44860;53.020;6.738;2022-10-10T09:56:45;12.70;99.90
59075;DHT22;44860;53.020;6.738;2022-10-10T09:59:47;12.80;99.90
59075;DHT22;44860;53.020;6.738;2022-10-10T10:02:17;12.90;99.90
59075;DHT22;44860;53.020;6.738;2022-10-10T10:04:44;13.00;99.90
59075;DHT22;44860;53.020;6.738;2022-10-10T10:09:52;13.10;99.90
59075;DHT22;44860;53.020;6.738;2022-10-10T10:12:24;13.10;99.90
59075;DHT22;44860;53.020;6.738;2022-10-10T10:14:58;13.20;99.90
59075;DHT22;44860;53.020;6.738;2022-10-10T10:17:24;13.30;99.90
59075;DHT22;44860;53.020;6.738;2022-10-10T10:19:49;13.30;99.90
59075;DHT22;44860;53.020;6.738;2022-10-10T10:24:47;13.40;99.90
59075;DHT22;44860;53.020;6.738;2022-10-10T10:27:21;13.40;99.90
59075;DHT22;44860;53.020;6.738;2022-10-10T10:29:50;13.40;99.90
59075;DHT22;44860;53.020;6.738;2022-10-10T10:35:08;13.60;99.90
59075;DHT22;44860;53.020;6.738;2022-10-10T10:40:33;13.80;99.90
59075;DHT22;44860;53.020;6.738;2022-10-10T10:51:01;14.20;99.90
59075;DHT22;44860;53.020;6.738;2022-10-10T10:53:43;14.30;99.90
59075;DHT22;44860;53.020;6.738;2022-10-10T10:56:30;14.40;99.90
59075;DHT22;44860;53.020;6.738;2022-10-10T11:04:20;14.70;99.90
59075;DHT22;44860;53.020;6.738;2022-10-10T11:07:01;14.80;99.90
59075;DHT22;44860;53.020;6.738;2022-10-10T11:09:39;14.90;99.90
59075;DHT22;44860;53.020;6.738;2022-10-10T11:12:31;15.00;99.90
59075;DHT22;44860;53.020;6.738;2022-10-10T11:17:37;15.20;99.90
59075;DHT22;44860;53.020;6.738;2022-10-10T11:20:18;15.30;99.90
59075;DHT22;44860;53.020;6.738;2022-10-10T11:22:49;15.30;99.90
59075;DHT22;44860;53.020;6.738;2022-10-10T11:28:17;15.30;99.90
59075;DHT22;44860;53.020;6.738;2022-10-10T11:31:10;15.40;99.90
59075;DHT22;44860;53.020;6.738;2022-10-10T11:33:41;15.40;99.90
59075;DHT22;44860;53.020;6.738;2022-10-10T11:36:16;15.40;99.90
59075;DHT22;44860;53.020;6.738;2022-10-10T11:38:56;15.40;99.90
59075;DHT22;44860;53.020;6.738;2022-10-10T11:46:42;15.20;99.90
59075;DHT22;44860;53.020;6.738;2022-10-10T11:54:45;15.10;99.90
59075;DHT22;44860;53.020;6.738;2022-10-10T11:57:19;15.10;99.90
59075;DHT22;44860;53.020;6.738;2022-10-10T11:59:52;15.00;99.90
59075;DHT22;44860;53.020;6.738;2022-10-10T12:02:25;15.00;99.90
59075;DHT22;44860;53.020;6.738;2022-10-10T12:04:51;14.90;99.90
59075;DHT22;44860;53.020;6.738;2022-10-10T12:07:39;14.90;99.90
59075;DHT22;44860;53.020;6.738;2022-10-10T12:10:14;14.80;99.90
59075;DHT22;44860;53.020;6.738;2022-10-10T12:12:44;14.80;99.90
59075;DHT22;44860;53.020;6.738;2022-10-10T12:15:33;14.80;99.90
59075;DHT22;44860;53.020;6.738;2022-10-10T12:17:59;14.70;99.90
59075;DHT22;44860;53.020;6.738;2022-10-10T12:23:21;14.60;99.90
59075;DHT22;44860;53.020;6.738;2022-10-10T12:25:47;14.60;99.90
59075;DHT22;44860;53.020;6.738;2022-10-10T12:33:31;14.60;99.90
59075;DHT22;44860;53.020;6.738;2022-10-10T12:41:53;14.50;99.90
59075;DHT22;44860;53.020;6.738;2022-10-10T12:49:54;14.50;99.90
59075;DHT22;44860;53.020;6.738;2022-10-10T12:54:49;14.50;99.90
59075;DHT22;44860;53.020;6.738;2022-10-10T12:57:23;14.40;99.90
59075;DHT22;44860;53.020;6.738;2022-10-10T12:59:49;14.40;99.90
59075;DHT22;44860;53.020;6.738;2022-10-10T13:02:25;14.40;99.90
59075;DHT22;44860;53.020;6.738;2022-10-10T13:04:57;14.40;99.90
59075;DHT22;44860;53.020;6.738;2022-10-10T13:07:24;14.50;99.90
59075;DHT22;44860;53.020;6.738;2022-10-10T13:09:52;14.40;99.90
59075;DHT22;44860;53.020;6.738;2022-10-10T13:12:25;14.40;99.90
59075;DHT22;44860;53.020;6.738;2022-10-10T13:14:51;14.30;99.90
59075;DHT22;44860;53.020;6.738;2022-10-10T13:19:49;14.30;99.90
59075;DHT22;44860;53.020;6.738;2022-10-10T13:22:15;14.30;99.90
59075;DHT22;44860;53.020;6.738;2022-10-10T13:24:43;14.30;99.90
59075;DHT22;44860;53.020;6.738;2022-10-10T13:27:15;14.30;99.90
59075;DHT22;44860;53.020;6.738;2022-10-10T13:29:41;14.30;99.90
59075;DHT22;44860;53.020;6.738;2022-10-10T13:32:21;14.30;99.90
59075;DHT22;44860;53.020;6.738;2022-10-10T13:35:00;14.20;99.90
59075;DHT22;44860;53.020;6.738;2022-10-10T13:37:27;14.20;99.90
59075;DHT22;44860;53.020;6.738;2022-10-10T13:39:53;14.20;99.90
59075;DHT22;44860;53.020;6.738;2022-10-10T13:42:32;14.10;99.90
59075;DHT22;44860;53.020;6.738;2022-10-10T13:44:59;14.10;99.90
59075;DHT22;44860;53.020;6.738;2022-10-10T13:47:51;14.00;99.90
59075;DHT22;44860;53.020;6.738;2022-10-10T13:50:30;14.00;99.90
59075;DHT22;44860;53.020;6.738;2022-10-10T13:53:30;14.00;99.90
59075;DHT22;44860;53.020;6.738;2022-10-10T13:56:25;14.00;99.90
59075;DHT22;44860;53.020;6.738;2022-10-10T14:01:37;13.90;99.90
59075;DHT22;44860;53.020;6.738;2022-10-10T14:04:18;13.90;99.90
59075;DHT22;44860;53.020;6.738;2022-10-10T14:07:44;13.90;99.90
59075;DHT22;44860;53.020;6.738;2022-10-10T14:09:50;13.90;99.90
59075;DHT22;44860;53.020;6.738;2022-10-10T14:12:24;13.80;99.90
59075;DHT22;44860;53.020;6.738;2022-10-10T14:14:53;13.80;99.90
59075;DHT22;44860;53.020;6.738;2022-10-10T14:17:19;13.80;99.90
59075;DHT22;44860;53.020;6.738;2022-10-10T14:19:48;13.70;99.90
59075;DHT22;44860;53.020;6.738;2022-10-10T14:22:14;13.70;99.90
59075;DHT22;44860;53.020;6.738;2022-10-10T14:24:39;13.60;99.90
59075;DHT22;44860;53.020;6.738;2022-10-10T14:27:24;13.40;99.90
59075;DHT22;44860;53.020;6.738;2022-10-10T14:29:55;13.40;99.90
59075;DHT22;44860;53.020;6.738;2022-10-10T14:32:21;13.30;99.90
59075;DHT22;44860;53.020;6.738;2022-10-10T14:34:47;13.20;99.90
59075;DHT22;44860;53.020;6.738;2022-10-10T14:39:41;13.10;99.90
59075;DHT22;44860;53.020;6.738;2022-10-10T14:42:10;13.10;99.90
59075;DHT22;44860;53.020;6.738;2022-10-10T14:44:36;13.00;99.90
59075;DHT22;44860;53.020;6.738;2022-10-10T14:47:01;13.00;99.90
59075;DHT22;44860;53.020;6.738;2022-10-10T14:49:27;13.00;99.90
59075;DHT22;44860;53.020;6.738;2022-10-10T14:51:52;12.90;99.90
59075;DHT22;44860;53.020;6.738;2022-10-10T14:54:18;12.90;99.90
59075;DHT22;44860;53.020;6.738;2022-10-10T14:56:44;12.90;99.90
59075;DHT22;44860;53.020;6.738;2022-10-10T14:59:19;12.90;99.90
59075;DHT22;44860;53.020;6.738;2022-10-10T15:01:45;12.90;99.90
59075;DHT22;44860;53.020;6.738;2022-10-10T15:04:12;12.90;99.90
59075;DHT22;44860;53.020;6.738;2022-10-10T15:06:38;12.80;99.90
59075;DHT22;44860;53.020;6.738;2022-10-10T15:09:04;12.80;99.90
59075;DHT22;44860;53.020;6.738;2022-10-10T15:11:30;12.80;99.90
59075;DHT22;44860;53.020;6.738;2022-10-10T15:13:55;12.80;99.90
59075;DHT22;44860;53.020;6.738;2022-10-10T15:16:22;12.80;99.90
59075;DHT22;44860;53.020;6.738;2022-10-10T15:18:47;12.90;99.90
59075;DHT22;44860;53.020;6.738;2022-10-10T15:21:13;12.90;99.90
59075;DHT22;44860;53.020;6.738;2022-10-10T15:23:39;12.90;99.90
59075;DHT22;44860;53.020;6.738;2022-10-10T15:26:05;12.90;99.90
59075;DHT22;44860;53.020;6.738;2022-10-10T15:28:31;12.90;99.90
59075;DHT22;44860;53.020;6.738;2022-10-10T15:30:57;13.00;99.90
59075;DHT22;44860;53.020;6.738;2022-10-10T15:33:23;13.10;99.90
59075;DHT22;44860;53.020;6.738;2022-10-10T15:36:04;13.20;99.90
59075;DHT22;44860;53.020;6.738;2022-10-10T15:38:32;13.30;99.90
59075;DHT22;44860;53.020;6.738;2022-10-10T15:41:03;13.30;99.90
59075;DHT22;44860;53.020;6.738;2022-10-10T15:43:30;13.30;99.90
59075;DHT22;44860;53.020;6.738;2022-10-10T15:45:56;13.30;99.90
59075;DHT22;44860;53.020;6.738;2022-10-10T15:48:23;13.30;99.90
59075;DHT22;44860;53.020;6.738;2022-10-10T15:50:49;13.20;99.90
59075;DHT22;44860;53.020;6.738;2022-10-10T15:53:16;13.20;99.90
59075;DHT22;44860;53.020;6.738;2022-10-10T15:55:46;13.20;99.90
59075;DHT22;44860;53.020;6.738;2022-10-10T15:58:13;13.20;99.90
59075;DHT22;44860;53.020;6.738;2022-10-10T16:00:40;13.10;99.90
59075;DHT22;44860;53.020;6.738;2022-10-10T16:03:08;13.10;99.90
59075;DHT22;44860;53.020;6.738;2022-10-10T16:05:40;13.00;99.90
59075;DHT22;44860;53.020;6.738;2022-10-10T16:08:08;13.00;99.90
59075;DHT22;44860;53.020;6.738;2022-10-10T16:10:37;12.90;99.90
59075;DHT22;44860;53.020;6.738;2022-10-10T16:13:04;12.90;99.90
59075;DHT22;44860;53.020;6.738;2022-10-10T16:15:30;12.90;99.90
59075;DHT22;44860;53.020;6.738;2022-10-10T16:17:55;12.80;99.90
59075;DHT22;44860;53.020;6.738;2022-10-10T16:20:21;12.80;99.90
59075;DHT22;44860;53.020;6.738;2022-10-10T16:22:47;12.70;99.90
59075;DHT22;44860;53.020;6.738;2022-10-10T16:25:12;12.70;99.90
59075;DHT22;44860;53.020;6.738;2022-10-10T16:27:38;12.60;99.90
59075;DHT22;44860;53.020;6.738;2022-10-10T16:30:05;12.60;99.90
59075;DHT22;44860;53.020;6.738;2022-10-10T16:32:31;12.60;99.90
59075;DHT22;44860;53.020;6.738;2022-10-10T16:34:57;12.50;99.90
59075;DHT22;44860;53.020;6.738;2022-10-10T16:37:23;12.50;99.90
59075;DHT22;44860;53.020;6.738;2022-10-10T16:39:48;12.40;99.90
59075;DHT22;44860;53.020;6.738;2022-10-10T16:42:14;12.30;99.90
59075;DHT22;44860;53.020;6.738;2022-10-10T16:44:39;12.30;99.90
59075;DHT22;44860;53.020;6.738;2022-10-10T16:47:05;12.20;99.90
59075;DHT22;44860;53.020;6.738;2022-10-10T16:49:31;12.20;99.90
59075;DHT22;44860;53.020;6.738;2022-10-10T16:51:56;12.20;99.90
59075;DHT22;44860;53.020;6.738;2022-10-10T16:54:22;12.10;99.90
59075;DHT22;44860;53.020;6.738;2022-10-10T16:56:48;12.00;99.90
59075;DHT22;44860;53.020;6.738;2022-10-10T16:59:13;11.90;99.90
59075;DHT22;44860;53.020;6.738;2022-10-10T17:01:39;11.80;99.90
59075;DHT22;44860;53.020;6.738;2022-10-10T17:04:05;11.70;99.90
59075;DHT22;44860;53.020;6.738;2022-10-10T17:06:31;11.60;99.90
59075;DHT22;44860;53.020;6.738;2022-10-10T17:09:04;11.40;99.90
59075;DHT22;44860;53.020;6.738;2022-10-10T17:11:30;11.40;99.90
59075;DHT22;44860;53.020;6.738;2022-10-10T17:13:56;11.20;99.90
59075;DHT22;44860;53.020;6.738;2022-10-10T17:16:25;11.20;99.90
59075;DHT22;44860;53.020;6.738;2022-10-10T17:18:51;11.10;99.90
59075;DHT22;44860;53.020;6.738;2022-10-10T17:21:19;11.00;99.90
59075;DHT22;44860;53.020;6.738;2022-10-10T17:23:46;10.90;99.90
59075;DHT22;44860;53.020;6.738;2022-10-10T17:26:14;10.90;99.90
59075;DHT22;44860;53.020;6.738;2022-10-10T17:28:40;10.80;99.90
59075;DHT22;44860;53.020;6.738;2022-10-10T17:31:09;10.70;99.90
59075;DHT22;44860;53.020;6.738;2022-10-10T17:33:36;10.70;99.90
59075;DHT22;44860;53.020;6.738;2022-10-10T17:36:22;10.60;99.90
59075;DHT22;44860;53.020;6.738;2022-10-10T17:38:48;10.50;99.90
59075;DHT22;44860;53.020;6.738;2022-10-10T17:41:15;10.40;99.90
59075;DHT22;44860;53.020;6.738;2022-10-10T17:43:42;10.30;99.90